createdAt,value
2023-02-13T00:01:08.331Z,18.65
2023-02-13T00:03:44.436Z,19.50
2023-02-13T00:06:17.862Z,19.18
2023-02-13T00:08:52.714Z,19.47
2023-02-13T00:11:24.303Z,19.35
2023-02-13T00:13:55.948Z,20.18
2023-02-13T00:16:28.695Z,19.85
2023-02-13T00:19:04.091Z,19.32
2023-02-13T00:21:38.763Z,19.61
2023-02-13T00:24:16.803Z,19.51
2023-02-13T00:26:47.657Z,19.29
2023-02-13T00:29:18.300Z,19.82
2023-02-13T00:31:49.029Z,19.56
2023-02-13T00:34:21.371Z,19.81
2023-02-13T00:36:52.405Z,19.54
2023-02-13T00:39:22.994Z,19.10
2023-02-13T00:41:53.565Z,19.83
2023-02-13T00:44:24.184Z,19.79
2023-02-13T00:46:54.813Z,20.11
2023-02-13T00:49:28.858Z,20.16
2023-02-13T00:51:59.452Z,19.75
2023-02-13T00:54:29.979Z,19.40
2023-02-13T00:57:00.517Z,19.26
2023-02-13T00:59:31.076Z,19.83
2023-02-13T01:02:02.693Z,19.94
2023-02-13T01:04:33.462Z,20.26
2023-02-13T01:07:04.004Z,20.23
2023-02-13T01:09:34.468Z,19.41
2023-02-13T01:12:05.025Z,20.40
2023-02-13T01:14:35.903Z,20.08
2023-02-13T01:17:06.967Z,20.16
2023-02-13T01:19:37.857Z,20.34
2023-02-13T01:22:10.413Z,20.87
2023-02-13T01:24:40.860Z,19.28
2023-02-13T01:27:11.711Z,19.30
2023-02-13T01:29:42.725Z,19.69
2023-02-13T01:32:13.710Z,20.18
2023-02-13T01:34:44.233Z,19.47
2023-02-13T01:37:15.191Z,19.90
2023-02-13T01:39:45.820Z,19.16
2023-02-13T01:42:19.665Z,19.44
2023-02-13T01:44:55.022Z,19.55
2023-02-13T01:47:45.202Z,19.39
2023-02-13T01:50:24.433Z,19.48
2023-02-13T01:53:00.393Z,20.31
2023-02-13T01:55:32.649Z,19.72
2023-02-13T01:58:09.098Z,20.47
2023-02-13T02:00:40.890Z,20.81
2023-02-13T02:03:14.385Z,20.01
2023-02-13T02:05:45.531Z,20.29
2023-02-13T02:08:18.039Z,20.33
2023-02-13T02:10:48.637Z,20.51
2023-02-13T02:13:21.986Z,19.73
2023-02-13T02:15:53.371Z,20.35
2023-02-13T02:18:25.596Z,20.75
2023-02-13T02:21:16.936Z,20.11
2023-02-13T02:24:21.534Z,19.60
2023-02-13T02:26:54.908Z,19.96
2023-02-13T02:29:44.787Z,20.59
2023-02-13T02:32:47.285Z,20.23
2023-02-13T02:35:38.703Z,19.64
2023-02-13T02:38:20.949Z,20.08
2023-02-13T02:41:06.500Z,20.41
2023-02-13T02:43:56.283Z,20.01
2023-02-13T02:46:32.394Z,20.79
2023-02-13T02:49:32.873Z,19.51
2023-02-13T02:52:18.708Z,19.53
2023-02-13T02:55:08.471Z,19.53
2023-02-13T02:58:05.114Z,19.95
2023-02-13T03:00:56.561Z,20.16
2023-02-13T03:03:46.554Z,19.31
2023-02-13T03:09:28.792Z,20.14
2023-02-13T03:12:19.450Z,19.22
2023-02-13T03:14:50.579Z,20.04
2023-02-13T03:17:39.163Z,20.26
2023-02-13T03:20:36.624Z,20.15
2023-02-13T03:23:22.256Z,20.15
2023-02-13T03:26:02.877Z,19.82
2023-02-13T03:28:57.151Z,20.42
2023-02-13T03:31:42.511Z,20.15
2023-02-13T03:34:16.053Z,20.28
2023-02-13T03:37:23.259Z,20.27
2023-02-13T03:40:08.663Z,19.94
2023-02-13T03:42:47.996Z,20.02
2023-02-13T03:45:43.444Z,19.42
2023-02-13T03:48:33.801Z,20.08
2023-02-13T03:51:06.614Z,19.08
2023-02-13T03:53:39.887Z,20.04
2023-02-13T03:56:30.742Z,20.30
2023-02-13T03:59:16.539Z,20.44
2023-02-13T04:01:56.191Z,20.17
2023-02-13T04:04:29.731Z,20.04
2023-02-13T04:07:03.166Z,19.57
2023-02-13T04:09:37.249Z,19.37
2023-02-13T04:12:22.946Z,20.36
2023-02-13T04:15:19.414Z,19.73
2023-02-13T04:18:02.335Z,19.45
2023-02-13T04:20:33.947Z,20.21
2023-02-13T04:23:10.645Z,20.45
2023-02-13T04:25:43.994Z,19.38
2023-02-13T04:28:14.873Z,20.02
2023-02-13T04:30:45.442Z,19.89
2023-02-13T04:33:16.073Z,19.91
2023-02-13T04:35:46.602Z,20.68
2023-02-13T04:38:17.881Z,20.22
2023-02-13T04:40:48.680Z,20.17
2023-02-13T04:43:19.429Z,19.57
2023-02-13T04:45:53.610Z,19.71
2023-02-13T04:48:24.169Z,20.08
2023-02-13T04:50:55.522Z,20.22
2023-02-13T04:53:26.804Z,20.19
2023-02-13T04:55:57.319Z,20.65
2023-02-13T04:58:27.876Z,20.42
2023-02-13T05:00:59.860Z,20.13
2023-02-13T05:03:31.026Z,20.87
2023-02-13T05:06:02.001Z,20.23
2023-02-13T05:08:32.516Z,20.72
2023-02-13T05:11:03.070Z,19.87
2023-02-13T05:13:34.040Z,20.22
2023-02-13T05:16:06.071Z,20.30
2023-02-13T05:18:36.946Z,20.35
2023-02-13T05:21:26.180Z,20.55
2023-02-13T05:23:56.841Z,20.63
2023-02-13T05:26:27.345Z,20.94
2023-02-13T05:29:15.539Z,20.48
2023-02-13T05:31:50.453Z,20.35
2023-02-13T05:34:22.747Z,20.26
2023-02-13T05:36:53.568Z,20.44
2023-02-13T05:39:24.432Z,20.50
2023-02-13T05:41:54.899Z,20.17
2023-02-13T05:44:26.698Z,20.21
2023-02-13T05:46:57.631Z,19.84
2023-02-13T05:49:28.249Z,20.02
2023-02-13T05:51:58.806Z,20.10
2023-02-13T05:54:29.366Z,20.66
2023-02-13T05:57:00.933Z,19.73
2023-02-13T05:59:31.616Z,20.22
2023-02-13T06:02:03.802Z,20.63
2023-02-13T06:04:34.244Z,19.83
2023-02-13T06:07:04.806Z,19.72
2023-02-13T06:09:36.373Z,19.85
2023-02-13T06:12:07.348Z,20.45
2023-02-13T06:14:38.030Z,20.21
2023-02-13T06:17:08.515Z,20.25
2023-02-13T06:19:38.953Z,19.96
2023-02-13T06:22:09.501Z,20.41
2023-02-13T06:24:39.973Z,20.31
2023-02-13T06:27:10.834Z,19.59
2023-02-13T06:29:41.468Z,19.91
2023-02-13T06:32:11.902Z,19.91
2023-02-13T06:34:42.383Z,20.44
2023-02-13T06:37:13.990Z,20.04
2023-02-13T06:39:44.602Z,20.37
2023-02-13T06:42:15.438Z,20.14
2023-02-13T06:44:46.002Z,20.42
2023-02-13T06:47:16.519Z,19.46
2023-02-13T06:49:46.976Z,20.02
2023-02-13T06:52:18.642Z,20.29
2023-02-13T06:54:50.751Z,20.28
2023-02-13T06:57:21.269Z,20.31
2023-02-13T06:59:51.758Z,19.74
2023-02-13T07:02:22.232Z,20.04
2023-02-13T07:04:52.993Z,19.53
2023-02-13T07:07:25.234Z,20.59
2023-02-13T07:09:55.889Z,20.11
2023-02-13T07:12:27.813Z,20.82
2023-02-13T07:14:58.303Z,20.38
2023-02-13T07:17:28.796Z,20.56
2023-02-13T07:19:59.488Z,20.86
2023-02-13T07:22:31.761Z,20.86
2023-02-13T07:25:02.830Z,20.31
2023-02-13T07:27:33.321Z,20.20
2023-02-13T07:30:03.992Z,20.55
2023-02-13T07:32:34.622Z,20.61
2023-02-13T07:35:05.909Z,20.50
2023-02-13T07:37:36.635Z,20.98
2023-02-13T07:40:08.551Z,20.35
2023-02-13T07:42:40.058Z,20.47
2023-02-13T07:45:12.136Z,20.69
2023-02-13T07:47:44.102Z,20.68
2023-02-13T07:50:15.113Z,20.22
2023-02-13T07:52:45.563Z,20.21
2023-02-13T07:55:17.824Z,20.25
2023-02-13T07:57:48.262Z,20.56
2023-02-13T08:00:20.133Z,20.27
2023-02-13T08:02:51.719Z,19.40
2023-02-13T08:05:22.414Z,21.01
2023-02-13T08:07:53.870Z,19.28
2023-02-13T08:10:42.482Z,19.71
2023-02-13T08:13:15.715Z,20.12
2023-02-13T08:15:47.322Z,19.90
2023-02-13T08:18:19.714Z,19.12
2023-02-13T08:20:51.413Z,19.30
2023-02-13T08:23:25.171Z,18.54
2023-02-13T08:25:57.454Z,19.03
2023-02-13T08:28:29.338Z,18.47
2023-02-13T08:31:00.430Z,19.55
2023-02-13T08:33:32.304Z,19.02
2023-02-13T08:36:05.134Z,19.19
2023-02-13T08:38:35.795Z,20.03
2023-02-13T08:41:06.678Z,19.98
2023-02-13T08:43:37.141Z,20.17
2023-02-13T08:46:08.456Z,20.46
2023-02-13T08:48:39.260Z,19.87
2023-02-13T08:51:12.124Z,19.90
2023-02-13T08:53:43.270Z,20.52
2023-02-13T08:56:14.086Z,20.34
2023-02-13T08:58:45.029Z,19.57
2023-02-13T09:01:16.904Z,20.96
2023-02-13T09:03:47.446Z,20.26
2023-02-13T09:06:18.005Z,19.16
2023-02-13T09:08:48.555Z,19.47
2023-02-13T09:11:20.074Z,19.70
2023-02-13T09:13:56.940Z,20.59
2023-02-13T09:16:27.504Z,19.22
2023-02-13T09:18:58.104Z,19.71
2023-02-13T09:21:28.866Z,20.56
2023-02-13T09:23:59.605Z,19.87
2023-02-13T09:26:30.247Z,19.59
2023-02-13T09:29:00.716Z,19.78
2023-02-13T09:31:31.433Z,19.40
2023-02-13T09:34:02.264Z,19.72
2023-02-13T09:36:33.745Z,19.69
2023-02-13T09:39:04.247Z,20.09
2023-02-13T09:41:37.639Z,19.46
2023-02-13T09:44:35.229Z,20.32
2023-02-13T09:47:17.745Z,20.67
2023-02-13T09:49:57.307Z,20.38
2023-02-13T09:52:30.668Z,20.41
2023-02-13T09:55:02.512Z,20.93
2023-02-13T09:57:39.098Z,19.67
2023-02-13T10:00:18.830Z,20.09
2023-02-13T10:02:58.425Z,20.11
2023-02-13T10:05:58.937Z,20.46
2023-02-13T10:08:53.993Z,19.68
2023-02-13T10:11:45.587Z,20.31
2023-02-13T10:14:21.887Z,20.12
2023-02-13T10:16:55.523Z,20.12
2023-02-13T10:19:47.000Z,19.49
2023-02-13T10:22:20.913Z,20.64
2023-02-13T10:25:00.410Z,20.60
2023-02-13T10:27:36.714Z,19.54
2023-02-13T10:30:22.658Z,20.49
2023-02-13T10:33:21.866Z,19.81
2023-02-13T10:36:15.026Z,19.48
2023-02-13T10:39:03.578Z,20.49
2023-02-13T10:41:41.517Z,20.14
2023-02-13T10:44:26.908Z,19.51
2023-02-13T10:47:21.671Z,20.70
2023-02-13T10:50:04.421Z,20.60
2023-02-13T10:52:41.005Z,20.28
2023-02-13T10:55:17.409Z,20.79
2023-02-13T10:58:12.451Z,20.27
2023-02-13T11:00:52.094Z,20.29
2023-02-13T11:03:27.224Z,20.29
2023-02-13T11:06:01.708Z,20.67
2023-02-13T11:08:36.990Z,20.93
2023-02-13T11:11:27.052Z,20.65
2023-02-13T11:14:21.474Z,20.97
2023-02-13T11:17:05.412Z,20.97
2023-02-13T11:19:42.009Z,19.90
2023-02-13T11:22:15.046Z,20.07
2023-02-13T11:24:48.417Z,20.74
2023-02-13T11:27:22.326Z,20.74
2023-02-13T11:29:56.505Z,20.63
2023-02-13T11:32:29.356Z,21.16
2023-02-13T11:35:03.169Z,21.16
2023-02-13T11:37:33.732Z,21.13
2023-02-13T11:40:07.353Z,21.53
2023-02-13T11:42:38.618Z,20.22
2023-02-13T11:45:24.160Z,20.22
2023-02-13T11:47:57.153Z,20.63
2023-02-13T11:50:35.264Z,21.94
2023-02-13T11:53:08.691Z,20.46
2023-02-13T11:55:42.886Z,21.48
2023-02-13T11:58:19.024Z,21.61
2023-02-13T12:00:49.825Z,20.53
2023-02-13T12:03:29.312Z,20.73
2023-02-13T12:06:18.672Z,20.92
2023-02-13T12:08:52.200Z,20.92
2023-02-13T12:11:40.425Z,20.86
2023-02-13T12:14:13.888Z,19.77
2023-02-13T12:16:47.618Z,19.77
2023-02-13T12:19:23.841Z,20.60
2023-02-13T12:22:00.057Z,19.87
2023-02-13T12:24:40.600Z,20.79
2023-02-13T12:27:33.740Z,20.07
2023-02-13T12:30:07.241Z,19.69
2023-02-13T12:32:50.387Z,21.02
2023-02-13T12:35:43.158Z,20.51
2023-02-13T12:38:32.832Z,19.60
2023-02-13T12:41:24.600Z,19.60
2023-02-13T12:44:10.338Z,20.70
2023-02-13T12:46:59.159Z,20.09
2023-02-13T12:49:49.371Z,20.16
2023-02-13T12:52:28.625Z,19.76
2023-02-13T12:55:05.227Z,20.04
2023-02-13T12:57:41.635Z,19.08
2023-02-13T13:00:39.748Z,20.18
2023-02-13T13:03:18.917Z,19.67
2023-02-13T13:06:03.525Z,19.73
2023-02-13T13:08:56.332Z,20.85
2023-02-13T13:11:51.173Z,20.41
2023-02-13T13:14:40.877Z,20.02
2023-02-13T13:17:17.370Z,20.11
2023-02-13T13:20:09.797Z,20.54
2023-02-13T13:22:58.378Z,20.88
2023-02-13T13:25:34.800Z,21.15
2023-02-13T13:28:08.563Z,21.05
2023-02-13T13:30:42.377Z,20.13
2023-02-13T13:33:19.061Z,20.27
2023-02-13T13:36:10.453Z,20.25
2023-02-13T13:38:44.027Z,20.45
2023-02-13T13:41:35.187Z,21.45
2023-02-13T13:44:37.558Z,21.10
2023-02-13T13:47:34.462Z,20.65
2023-02-13T13:50:07.166Z,20.63
2023-02-13T13:52:38.881Z,20.99
2023-02-13T13:55:12.247Z,20.03
2023-02-13T13:57:45.846Z,20.70
2023-02-13T14:00:19.320Z,20.85
2023-02-13T14:03:01.769Z,19.88
2023-02-13T14:05:34.274Z,20.43
2023-02-13T14:08:07.866Z,20.21
2023-02-13T14:10:41.258Z,20.85
2023-02-13T14:13:13.216Z,20.52
2023-02-13T14:15:46.737Z,20.29
2023-02-13T14:18:20.418Z,20.22
2023-02-13T14:20:54.033Z,20.72
2023-02-13T14:23:39.812Z,20.77
2023-02-13T14:26:19.357Z,19.68
2023-02-13T14:28:55.529Z,19.42
2023-02-13T14:31:31.717Z,20.32
2023-02-13T14:34:18.423Z,20.47
2023-02-13T14:36:52.938Z,20.13
2023-02-13T14:39:29.383Z,20.78
2023-02-13T14:42:02.559Z,20.65
2023-02-13T14:44:38.691Z,21.19
2023-02-13T14:47:15.141Z,20.67
2023-02-13T14:49:47.097Z,20.60
2023-02-13T14:52:29.712Z,19.59
2023-02-13T14:55:06.081Z,19.59
2023-02-13T14:57:46.159Z,21.15
2023-02-13T15:00:28.846Z,21.04
2023-02-13T15:03:08.396Z,21.21
2023-02-13T15:05:40.436Z,21.06
2023-02-13T15:08:16.570Z,21.19
2023-02-13T15:10:49.934Z,21.64
2023-02-13T15:13:28.311Z,21.02
2023-02-13T15:16:11.096Z,21.09
2023-02-13T15:18:48.163Z,21.07
2023-02-13T15:21:22.002Z,21.30
2023-02-13T15:23:58.214Z,20.91
2023-02-13T15:26:29.790Z,19.66
2023-02-13T15:29:11.388Z,20.82
2023-02-13T15:31:38.919Z,21.67
2023-02-13T15:34:25.195Z,21.01
2023-02-13T15:36:57.820Z,20.98
2023-02-13T15:39:31.428Z,21.17
2023-02-13T15:42:04.348Z,21.24
2023-02-13T15:44:38.367Z,21.05
2023-02-13T15:47:20.948Z,20.70
2023-02-13T15:49:52.331Z,20.51
2023-02-13T15:52:34.625Z,21.01
2023-02-13T15:55:05.876Z,20.79
2023-02-13T15:57:36.806Z,20.79
2023-02-13T16:00:10.544Z,21.00
2023-02-13T16:02:47.925Z,21.30
2023-02-13T16:05:32.537Z,20.92
2023-02-13T16:07:54.774Z,20.94
2023-02-13T16:10:36.651Z,20.73
2023-02-13T16:13:08.946Z,20.49
2023-02-13T16:15:39.757Z,20.39
2023-02-13T16:18:15.861Z,21.58
2023-02-13T16:20:46.636Z,21.76
2023-02-13T16:23:21.828Z,21.58
2023-02-13T16:25:53.246Z,21.57
2023-02-13T16:28:27.514Z,21.47
2023-02-13T16:31:01.549Z,21.56
2023-02-13T16:33:37.647Z,20.84
2023-02-13T16:36:14.369Z,20.82
2023-02-13T16:38:50.373Z,20.75
2023-02-13T16:41:25.960Z,21.42
2023-02-13T16:44:04.178Z,21.46
2023-02-13T16:46:40.272Z,21.28
2023-02-13T16:49:13.767Z,21.38
2023-02-13T16:51:56.791Z,20.94
2023-02-13T16:54:50.110Z,21.25
2023-02-13T16:57:23.787Z,21.35
2023-02-13T16:59:57.314Z,21.37
2023-02-13T17:02:40.096Z,21.19
2023-02-13T17:05:14.318Z,21.42
2023-02-13T17:07:51.420Z,20.87
2023-02-13T17:10:27.574Z,20.49
2023-02-13T17:13:02.978Z,20.39
2023-02-13T17:15:34.056Z,20.51
2023-02-13T17:18:05.486Z,21.08
2023-02-13T17:20:37.953Z,20.34
2023-02-13T17:23:11.036Z,20.43
2023-02-13T17:25:42.934Z,20.28
2023-02-13T17:28:19.415Z,20.05
2023-02-13T17:30:53.301Z,19.77
2023-02-13T17:33:27.016Z,20.65
2023-02-13T17:35:58.158Z,20.72
2023-02-13T17:38:28.866Z,20.22
2023-02-13T17:41:01.680Z,20.30
2023-02-13T17:43:32.363Z,19.33
2023-02-13T17:46:03.536Z,20.31
2023-02-13T17:48:34.705Z,20.85
2023-02-13T17:51:05.824Z,19.55
2023-02-13T17:53:36.884Z,19.57
2023-02-13T17:56:07.381Z,20.54
2023-02-13T17:58:38.025Z,19.94
2023-02-13T18:01:10.619Z,20.04
2023-02-13T18:03:41.304Z,20.67
2023-02-13T18:06:14.873Z,20.93
2023-02-13T18:08:45.371Z,19.82
2023-02-13T18:11:16.480Z,20.36
2023-02-13T18:13:48.767Z,21.01
2023-02-13T18:16:19.366Z,20.61
2023-02-13T18:18:49.930Z,20.78
2023-02-13T18:21:25.088Z,20.08
2023-02-13T18:23:56.031Z,20.11
2023-02-13T18:26:26.738Z,20.39
2023-02-13T18:28:57.305Z,20.61
2023-02-13T18:31:28.044Z,20.01
2023-02-13T18:33:59.228Z,19.70
2023-02-13T18:36:30.048Z,20.09
2023-02-13T18:39:01.949Z,20.28
2023-02-13T18:41:32.633Z,20.30
2023-02-13T18:44:03.186Z,20.71
2023-02-13T18:46:33.948Z,20.36
2023-02-13T18:49:05.513Z,20.43
2023-02-13T18:51:36.299Z,20.35
2023-02-13T18:54:07.753Z,20.62
2023-02-13T18:56:38.440Z,20.26
2023-02-13T18:59:09.037Z,20.25
2023-02-13T19:01:40.249Z,20.37
2023-02-13T19:04:13.074Z,20.72
2023-02-13T19:06:45.724Z,20.65
2023-02-13T19:09:16.432Z,19.78
2023-02-13T19:11:48.959Z,20.26
2023-02-13T19:14:20.065Z,20.44
2023-02-13T19:16:51.975Z,20.22
2023-02-13T19:19:22.496Z,20.07
2023-02-13T19:21:54.105Z,19.58
2023-02-13T19:24:24.699Z,20.32
2023-02-13T19:26:56.578Z,20.20
2023-02-13T19:29:28.551Z,20.81
2023-02-13T19:31:59.231Z,21.09
2023-02-13T19:34:31.181Z,20.12
2023-02-13T19:37:01.967Z,20.52
2023-02-13T19:39:32.658Z,20.32
2023-02-13T19:42:03.324Z,21.01
2023-02-13T19:44:33.834Z,20.51
2023-02-13T19:47:04.376Z,20.53
2023-02-13T19:49:35.305Z,20.37
2023-02-13T19:52:05.908Z,20.13
2023-02-13T19:54:36.901Z,19.84
2023-02-13T19:57:07.458Z,20.20
2023-02-13T19:59:38.119Z,20.72
2023-02-13T20:02:10.170Z,21.05
2023-02-13T20:04:42.321Z,20.76
2023-02-13T20:07:13.023Z,20.28
2023-02-13T20:09:45.113Z,20.46
2023-02-13T20:12:15.603Z,20.30
2023-02-13T20:14:46.521Z,19.98
2023-02-13T20:17:18.009Z,19.60
2023-02-13T20:19:54.508Z,20.01
2023-02-13T20:22:24.971Z,19.51
2023-02-13T20:24:55.768Z,20.05
2023-02-13T20:27:26.603Z,19.88
2023-02-13T20:30:06.310Z,20.40
2023-02-13T20:32:29.716Z,20.05
2023-02-13T20:35:00.406Z,19.71
2023-02-13T20:37:31.727Z,19.92
2023-02-13T20:40:02.477Z,19.86
2023-02-13T20:42:35.252Z,19.41
2023-02-13T20:45:06.496Z,20.18
2023-02-13T20:47:37.125Z,20.29
2023-02-13T20:50:08.763Z,19.86
2023-02-13T20:52:39.501Z,18.97
2023-02-13T20:55:10.552Z,19.52
2023-02-13T20:57:41.064Z,19.51
2023-02-13T21:00:13.728Z,19.12
2023-02-13T21:02:45.097Z,18.99
2023-02-13T21:05:16.898Z,19.05
2023-02-13T21:07:49.107Z,18.74
2023-02-13T21:10:21.130Z,19.10
2023-02-13T21:12:52.078Z,19.02
2023-02-13T21:15:22.877Z,19.50
2023-02-13T21:17:53.380Z,19.33
2023-02-13T21:20:23.908Z,18.73
2023-02-13T21:22:55.266Z,18.52
2023-02-13T21:25:26.128Z,18.90
2023-02-13T21:27:57.857Z,18.85
2023-02-13T21:30:28.507Z,18.32
2023-02-13T21:32:59.282Z,18.91
2023-02-13T21:35:29.986Z,18.36
2023-02-13T21:38:00.589Z,19.34
2023-02-13T21:40:31.154Z,18.39
2023-02-13T21:43:01.778Z,19.59
2023-02-13T21:45:32.585Z,19.09
2023-02-13T21:48:03.250Z,19.15
2023-02-13T21:50:33.719Z,18.75
2023-02-13T21:53:04.254Z,18.81
2023-02-13T21:55:35.036Z,17.98
2023-02-13T21:58:05.585Z,18.08
2023-02-13T22:00:37.522Z,17.92
2023-02-13T22:03:08.054Z,18.78
2023-02-13T22:05:41.414Z,18.35
2023-02-13T22:08:11.883Z,18.07
2023-02-13T22:10:42.464Z,18.44
2023-02-13T22:13:12.945Z,18.22
2023-02-13T22:15:43.714Z,18.67
2023-02-13T22:18:15.179Z,18.12
2023-02-13T22:20:45.861Z,17.54
2023-02-13T22:23:16.494Z,18.01
2023-02-13T22:25:51.985Z,18.69
2023-02-13T22:28:22.854Z,18.66
2023-02-13T22:30:53.923Z,18.10
2023-02-13T22:33:24.776Z,18.59
2023-02-13T22:35:55.433Z,18.90
2023-02-13T22:38:25.944Z,18.74
2023-02-13T22:40:57.666Z,18.76
2023-02-13T22:43:29.529Z,18.03
2023-02-13T22:46:15.322Z,17.63
2023-02-13T22:48:47.012Z,17.84
2023-02-13T22:51:20.495Z,18.08
2023-02-13T22:53:53.029Z,18.17
2023-02-13T22:56:24.608Z,18.25
2023-02-13T22:58:58.620Z,18.12
2023-02-13T23:01:30.558Z,17.05
2023-02-13T23:04:01.386Z,17.73
2023-02-13T23:06:33.605Z,17.52
2023-02-13T23:09:04.160Z,17.80
2023-02-13T23:11:52.571Z,17.81
2023-02-13T23:14:26.810Z,17.63
2023-02-13T23:17:15.166Z,18.09
2023-02-13T23:19:45.934Z,18.82
2023-02-13T23:22:16.545Z,19.13
2023-02-13T23:24:48.364Z,17.97
2023-02-13T23:27:19.025Z,17.89
2023-02-13T23:29:49.779Z,17.91
2023-02-13T23:32:20.577Z,18.26
2023-02-13T23:34:51.294Z,18.38
2023-02-13T23:37:21.904Z,17.61
2023-02-13T23:39:52.377Z,17.66
2023-02-13T23:42:22.863Z,17.70
2023-02-13T23:44:53.352Z,18.37
2023-02-13T23:47:23.860Z,18.72
2023-02-13T23:49:54.343Z,18.10
2023-02-13T23:52:24.863Z,18.53
2023-02-13T23:54:55.347Z,18.54
2023-02-13T23:57:25.912Z,18.39
2023-02-13T23:59:56.369Z,18.30
